sensor_id;sensor_type;location;lat;lon;timestamp;pressure;altitude;pressure_sealevel;temperature;humidity
29433;BME280;16405;53.964;13.448;2023-09-07T00:01:49;102191.47;;;17.09;100.00
29433;BME280;16405;53.964;13.448;2023-09-07T00:04:19;102189.13;;;17.02;100.00
29433;BME280;16405;53.964;13.448;2023-09-07T00:06:45;102193.66;;;17.00;100.00
29433;BME280;16405;53.964;13.448;2023-09-07T00:09:10;102190.50;;;17.10;100.00
29433;BME280;16405;53.964;13.448;2023-09-07T00:11:37;102184.41;;;17.08;100.00
29433;BME280;16405;53.964;13.448;2023-09-07T00:14:03;102185.97;;;17.12;100.00
29433;BME280;16405;53.964;13.448;2023-09-07T00:16:32;102193.97;;;17.12;100.00
29433;BME280;16405;53.964;13.448;2023-09-07T00:19:01;102187.94;;;17.08;100.00
29433;BME280;16405;53.964;13.448;2023-09-07T00:21:28;102181.75;;;17.08;100.00
29433;BME280;16405;53.964;13.448;2023-09-07T00:23:54;102182.69;;;17.07;100.00
29433;BME280;16405;53.964;13.448;2023-09-07T00:26:20;102189.81;;;17.06;100.00
29433;BME280;16405;53.964;13.448;2023-09-07T00:28:47;102179.56;;;16.98;100.00
29433;BME280;16405;53.964;13.448;2023-09-07T00:31:13;102191.13;;;16.97;100.00
29433;BME280;16405;53.964;13.448;2023-09-07T00:33:41;102185.38;;;17.07;100.00
29433;BME280;16405;53.964;13.448;2023-09-07T00:36:07;102190.13;;;17.00;100.00
29433;BME280;16405;53.964;13.448;2023-09-07T00:38:33;102186.16;;;17.09;100.00
29433;BME280;16405;53.964;13.448;2023-09-07T00:40:58;102187.13;;;17.06;100.00
29433;BME280;16405;53.964;13.448;2023-09-07T00:43:24;102182.84;;;17.04;100.00
29433;BME280;16405;53.964;13.448;2023-09-07T00:45:50;102197.03;;;17.04;100.00
29433;BME280;16405;53.964;13.448;2023-09-07T00:48:16;102184.81;;;17.00;100.00
29433;BME280;16405;53.964;13.448;2023-09-07T00:50:43;102195.13;;;17.06;100.00
29433;BME280;16405;53.964;13.448;2023-09-07T00:53:10;102192.56;;;17.05;100.00
29433;BME280;16405;53.964;13.448;2023-09-07T00:55:36;102195.78;;;17.11;100.00
29433;BME280;16405;53.964;13.448;2023-09-07T00:58:06;102189.91;;;17.05;100.00
29433;BME280;16405;53.964;13.448;2023-09-07T01:00:34;102189.66;;;17.09;100.00
29433;BME280;16405;53.964;13.448;2023-09-07T01:02:59;102185.84;;;17.15;100.00
29433;BME280;16405;53.964;13.448;2023-09-07T01:06:03;102186.84;;;17.12;100.00
29433;BME280;16405;53.964;13.448;2023-09-07T01:08:36;102187.47;;;17.17;100.00
29433;BME280;16405;53.964;13.448;2023-09-07T01:11:18;102182.06;;;17.19;100.00
29433;BME280;16405;53.964;13.448;2023-09-07T01:13:49;102186.94;;;17.11;100.00
29433;BME280;16405;53.964;13.448;2023-09-07T01:16:15;102188.50;;;17.15;100.00
29433;BME280;16405;53.964;13.448;2023-09-07T01:18:42;102183.25;;;17.13;100.00
29433;BME280;16405;53.964;13.448;2023-09-07T01:21:09;102180.97;;;17.06;100.00
29433;BME280;16405;53.964;13.448;2023-09-07T01:23:39;102181.69;;;17.09;100.00
29433;BME280;16405;53.964;13.448;2023-09-07T01:26:07;102189.25;;;17.17;100.00
29433;BME280;16405;53.964;13.448;2023-09-07T01:28:35;102188.34;;;17.18;100.00
29433;BME280;16405;53.964;13.448;2023-09-07T01:31:01;102188.72;;;17.10;100.00
29433;BME280;16405;53.964;13.448;2023-09-07T01:33:29;102187.06;;;17.08;100.00
29433;BME280;16405;53.964;13.448;2023-09-07T01:35:55;102177.38;;;17.07;100.00
29433;BME280;16405;53.964;13.448;2023-09-07T01:38:21;102185.84;;;17.15;100.00
29433;BME280;16405;53.964;13.448;2023-09-07T01:40:47;102181.69;;;17.09;100.00
29433;BME280;16405;53.964;13.448;2023-09-07T01:43:12;102175.81;;;17.02;100.00
29433;BME280;16405;53.964;13.448;2023-09-07T01:45:39;102185.91;;;17.13;100.00
29433;BME280;16405;53.964;13.448;2023-09-07T01:48:10;102181.38;;;17.15;100.00
29433;BME280;16405;53.964;13.448;2023-09-07T01:50:36;102179.75;;;17.13;100.00
29433;BME280;16405;53.964;13.448;2023-09-07T01:53:02;102177.44;;;17.22;100.00
29433;BME280;16405;53.964;13.448;2023-09-07T01:55:30;102171.28;;;17.22;100.00
29433;BME280;16405;53.964;13.448;2023-09-07T01:57:56;102185.13;;;17.11;100.00
29433;BME280;16405;53.964;13.448;2023-09-07T02:00:22;102174.84;;;17.21;100.00
29433;BME280;16405;53.964;13.448;2023-09-07T02:02:47;102179.50;;;17.17;100.00
29433;BME280;16405;53.964;13.448;2023-09-07T02:05:13;102178.47;;;17.20;100.00
29433;BME280;16405;53.964;13.448;2023-09-07T02:07:39;102187.06;;;17.25;100.00
29433;BME280;16405;53.964;13.448;2023-09-07T02:10:05;102181.84;;;17.24;100.00
29433;BME280;16405;53.964;13.448;2023-09-07T02:12:31;102184.09;;;17.14;100.00
29433;BME280;16405;53.964;13.448;2023-09-07T02:15:00;102184.66;;;17.20;100.00
29433;BME280;16405;53.964;13.448;2023-09-07T02:17:26;102188.03;;;17.24;100.00
29433;BME280;16405;53.964;13.448;2023-09-07T02:19:51;102179.25;;;17.22;100.00
29433;BME280;16405;53.964;13.448;2023-09-07T02:22:17;102191.78;;;17.20;100.00
29433;BME280;16405;53.964;13.448;2023-09-07T02:24:43;102193.72;;;17.34;100.00
29433;BME280;16405;53.964;13.448;2023-09-07T02:27:08;102193.97;;;17.29;100.00
29433;BME280;16405;53.964;13.448;2023-09-07T02:34:45;102185.72;;;17.34;100.00
29433;BME280;16405;53.964;13.448;2023-09-07T02:37:11;102193.28;;;17.26;100.00
29433;BME280;16405;53.964;13.448;2023-09-07T02:39:36;102184.50;;;17.24;100.00
29433;BME280;16405;53.964;13.448;2023-09-07T02:42:02;102181.75;;;17.25;100.00
29433;BME280;16405;53.964;13.448;2023-09-07T02:44:28;102188.31;;;17.35;100.00
29433;BME280;16405;53.964;13.448;2023-09-07T02:46:54;102194.59;;;17.34;100.00
29433;BME280;16405;53.964;13.448;2023-09-07T02:49:19;102186.94;;;17.28;100.00
29433;BME280;16405;53.964;13.448;2023-09-07T02:51:45;102190.13;;;17.17;100.00
29433;BME280;16405;53.964;13.448;2023-09-07T02:54:11;102187.72;;;17.30;100.00
29433;BME280;16405;53.964;13.448;2023-09-07T02:56:36;102194.66;;;17.33;100.00
29433;BME280;16405;53.964;13.448;2023-09-07T02:59:02;102195.47;;;17.17;100.00
29433;BME280;16405;53.964;13.448;2023-09-07T03:01:28;102194.19;;;17.25;100.00
29433;BME280;16405;53.964;13.448;2023-09-07T03:03:54;102194.44;;;17.20;100.00
29433;BME280;16405;53.964;13.448;2023-09-07T03:06:21;102191.91;;;17.17;100.00
29433;BME280;16405;53.964;13.448;2023-09-07T03:08:47;102187.47;;;17.17;100.00
29433;BME280;16405;53.964;13.448;2023-09-07T03:11:12;102194.97;;;17.27;100.00
29433;BME280;16405;53.964;13.448;2023-09-07T03:13:38;102192.88;;;17.33;100.00
29433;BME280;16405;53.964;13.448;2023-09-07T03:16:05;102195.47;;;17.35;100.00
29433;BME280;16405;53.964;13.448;2023-09-07T03:18:31;102198.19;;;17.33;100.00
29433;BME280;16405;53.964;13.448;2023-09-07T03:21:00;102196.63;;;17.29;100.00
29433;BME280;16405;53.964;13.448;2023-09-07T03:23:32;102202.91;;;17.28;100.00
29433;BME280;16405;53.964;13.448;2023-09-07T03:25:58;102202.72;;;17.14;100.00
29433;BME280;16405;53.964;13.448;2023-09-07T03:28:25;102196.31;;;17.18;100.00
29433;BME280;16405;53.964;13.448;2023-09-07T03:30:52;102200.63;;;17.20;100.00
29433;BME280;16405;53.964;13.448;2023-09-07T03:33:18;102202.34;;;17.21;100.00
29433;BME280;16405;53.964;13.448;2023-09-07T03:35:44;102197.72;;;17.25;100.00
29433;BME280;16405;53.964;13.448;2023-09-07T03:38:10;102207.34;;;17.28;100.00
29433;BME280;16405;53.964;13.448;2023-09-07T03:40:36;102205.56;;;17.28;100.00
29433;BME280;16405;53.964;13.448;2023-09-07T03:43:02;102201.41;;;17.22;100.00
29433;BME280;16405;53.964;13.448;2023-09-07T03:45:28;102209.56;;;17.19;100.00
29433;BME280;16405;53.964;13.448;2023-09-07T03:47:54;102201.56;;;17.19;100.00
29433;BME280;16405;53.964;13.448;2023-09-07T03:50:19;102202.34;;;17.21;100.00
29433;BME280;16405;53.964;13.448;2023-09-07T03:52:45;102207.44;;;17.26;100.00
29433;BME280;16405;53.964;13.448;2023-09-07T03:55:11;102203.03;;;17.25;100.00
29433;BME280;16405;53.964;13.448;2023-09-07T03:57:37;102207.91;;;17.34;100.00
29433;BME280;16405;53.964;13.448;2023-09-07T04:00:03;102205.63;;;17.27;100.00
29433;BME280;16405;53.964;13.448;2023-09-07T04:02:33;102203.81;;;17.27;100.00
29433;BME280;16405;53.964;13.448;2023-09-07T04:04:59;102202.25;;;17.23;100.00
29433;BME280;16405;53.964;13.448;2023-09-07T04:07:27;102211.75;;;17.29;100.00
29433;BME280;16405;53.964;13.448;2023-09-07T04:09:53;102206.19;;;17.33;100.00
29433;BME280;16405;53.964;13.448;2023-09-07T04:12:19;102208.84;;;17.33;100.00
29433;BME280;16405;53.964;13.448;2023-09-07T04:14:44;102211.31;;;17.36;100.00
29433;BME280;16405;53.964;13.448;2023-09-07T04:17:10;102213.53;;;17.28;100.00
29433;BME280;16405;53.964;13.448;2023-09-07T04:19:36;102216.09;;;17.30;100.00
29433;BME280;16405;53.964;13.448;2023-09-07T04:22:02;102215.00;;;17.34;100.00
29433;BME280;16405;53.964;13.448;2023-09-07T04:24:28;102215.66;;;17.39;100.00
29433;BME280;16405;53.964;13.448;2023-09-07T04:26:58;102214.63;;;17.41;100.00
29433;BME280;16405;53.964;13.448;2023-09-07T04:29:25;102214.00;;;17.36;100.00
29433;BME280;16405;53.964;13.448;2023-09-07T04:31:51;102213.06;;;17.37;100.00
29433;BME280;16405;53.964;13.448;2023-09-07T04:34:16;102216.81;;;17.33;100.00
29433;BME280;16405;53.964;13.448;2023-09-07T04:36:42;102219.41;;;17.35;100.00
29433;BME280;16405;53.964;13.448;2023-09-07T04:39:08;102228.00;;;17.40;100.00
29433;BME280;16405;53.964;13.448;2023-09-07T04:41:33;102228.31;;;17.34;100.00
29433;BME280;16405;53.964;13.448;2023-09-07T04:43:59;102226.56;;;17.34;100.00
29433;BME280;16405;53.964;13.448;2023-09-07T04:46:25;102233.41;;;17.21;100.00
29433;BME280;16405;53.964;13.448;2023-09-07T04:48:51;102231.94;;;17.33;100.00
29433;BME280;16405;53.964;13.448;2023-09-07T04:51:16;102234.06;;;17.43;100.00
29433;BME280;16405;53.964;13.448;2023-09-07T04:53:42;102235.44;;;17.51;100.00
29433;BME280;16405;53.964;13.448;2023-09-07T04:56:08;102239.84;;;17.52;100.00
29433;BME280;16405;53.964;13.448;2023-09-07T04:58:35;102245.31;;;17.49;100.00
29433;BME280;16405;53.964;13.448;2023-09-07T05:01:06;102247.97;;;17.49;100.00
29433;BME280;16405;53.964;13.448;2023-09-07T05:03:32;102246.34;;;17.46;100.00
29433;BME280;16405;53.964;13.448;2023-09-07T05:06:00;102254.88;;;17.53;100.00
29433;BME280;16405;53.964;13.448;2023-09-07T05:08:26;102239.22;;;17.47;100.00
29433;BME280;16405;53.964;13.448;2023-09-07T05:11:00;102247.13;;;17.48;100.00
29433;BME280;16405;53.964;13.448;2023-09-07T05:13:26;102247.66;;;17.55;100.00
29433;BME280;16405;53.964;13.448;2023-09-07T05:15:53;102248.69;;;17.52;100.00
29433;BME280;16405;53.964;13.448;2023-09-07T05:18:20;102259.09;;;17.57;100.00
29433;BME280;16405;53.964;13.448;2023-09-07T05:20:46;102247.19;;;17.64;100.00
29433;BME280;16405;53.964;13.448;2023-09-07T05:23:14;102249.69;;;17.67;100.00
29433;BME280;16405;53.964;13.448;2023-09-07T05:25:53;102259.81;;;17.60;100.00
29433;BME280;16405;53.964;13.448;2023-09-07T05:28:21;102251.66;;;17.63;100.00
29433;BME280;16405;53.964;13.448;2023-09-07T05:30:47;102254.25;;;17.65;100.00
29433;BME280;16405;53.964;13.448;2023-09-07T05:33:14;102253.03;;;17.71;100.00
29433;BME280;16405;53.964;13.448;2023-09-07T05:35:41;102253.41;;;17.82;100.00
29433;BME280;16405;53.964;13.448;2023-09-07T05:38:08;102258.38;;;17.88;100.00
29433;BME280;16405;53.964;13.448;2023-09-07T05:40:39;102254.78;;;17.89;100.00
29433;BME280;16405;53.964;13.448;2023-09-07T05:43:06;102257.97;;;17.78;100.00
29433;BME280;16405;53.964;13.448;2023-09-07T05:45:37;102264.41;;;17.92;100.00
29433;BME280;16405;53.964;13.448;2023-09-07T05:48:04;102255.88;;;17.85;100.00
29433;BME280;16405;53.964;13.448;2023-09-07T05:50:33;102263.84;;;18.02;100.00
29433;BME280;16405;53.964;13.448;2023-09-07T05:52:59;102257.81;;;17.99;100.00
29433;BME280;16405;53.964;13.448;2023-09-07T05:55:24;102266.25;;;18.07;100.00
29433;BME280;16405;53.964;13.448;2023-09-07T05:57:50;102260.06;;;18.07;100.00
29433;BME280;16405;53.964;13.448;2023-09-07T06:00:16;102264.88;;;18.00;100.00
29433;BME280;16405;53.964;13.448;2023-09-07T06:02:45;102268.31;;;18.02;100.00
29433;BME280;16405;53.964;13.448;2023-09-07T06:05:11;102275.59;;;17.98;100.00
29433;BME280;16405;53.964;13.448;2023-09-07T06:07:37;102268.09;;;17.89;100.00
29433;BME280;16405;53.964;13.448;2023-09-07T06:10:03;102267.41;;;17.86;100.00
29433;BME280;16405;53.964;13.448;2023-09-07T06:12:31;102273.38;;;17.91;100.00
29433;BME280;16405;53.964;13.448;2023-09-07T06:14:57;102277.28;;;18.17;100.00
29433;BME280;16405;53.964;13.448;2023-09-07T06:17:23;102276.97;;;18.23;100.00
29433;BME280;16405;53.964;13.448;2023-09-07T06:19:51;102275.44;;;18.35;100.00
29433;BME280;16405;53.964;13.448;2023-09-07T06:22:17;102273.72;;;18.50;100.00
29433;BME280;16405;53.964;13.448;2023-09-07T06:24:43;102275.19;;;18.55;100.00
29433;BME280;16405;53.964;13.448;2023-09-07T06:27:08;102285.28;;;18.66;100.00
29433;BME280;16405;53.964;13.448;2023-09-07T06:29:34;102283.28;;;18.70;100.00
29433;BME280;16405;53.964;13.448;2023-09-07T06:32:00;102288.63;;;18.54;100.00
29433;BME280;16405;53.964;13.448;2023-09-07T06:34:26;102279.84;;;18.18;100.00
29433;BME280;16405;53.964;13.448;2023-09-07T06:36:51;102286.00;;;18.36;100.00
29433;BME280;16405;53.964;13.448;2023-09-07T06:39:17;102279.56;;;18.40;100.00
29433;BME280;16405;53.964;13.448;2023-09-07T06:41:46;102289.28;;;18.57;100.00
29433;BME280;16405;53.964;13.448;2023-09-07T06:44:12;102287.50;;;18.74;100.00
29433;BME280;16405;53.964;13.448;2023-09-07T06:46:37;102289.72;;;18.65;100.00
29433;BME280;16405;53.964;13.448;2023-09-07T06:49:03;102293.72;;;18.90;100.00
29433;BME280;16405;53.964;13.448;2023-09-07T06:51:31;102287.97;;;19.28;100.00
29433;BME280;16405;53.964;13.448;2023-09-07T06:53:57;102294.81;;;19.93;100.00
29433;BME280;16405;53.964;13.448;2023-09-07T06:56:23;102296.72;;;20.48;100.00
29433;BME280;16405;53.964;13.448;2023-09-07T06:58:49;102299.97;;;21.22;99.09
29433;BME280;16405;53.964;13.448;2023-09-07T07:01:15;102316.78;;;24.09;85.07
29433;BME280;16405;53.964;13.448;2023-09-07T07:03:41;102331.88;;;26.48;73.37
29433;BME280;16405;53.964;13.448;2023-09-07T07:06:07;102337.44;;;28.04;66.67
29433;BME280;16405;53.964;13.448;2023-09-07T07:08:33;102343.81;;;28.40;64.15
29433;BME280;16405;53.964;13.448;2023-09-07T07:10:58;102357.22;;;29.69;60.31
29433;BME280;16405;53.964;13.448;2023-09-07T07:13:25;102364.00;;;30.43;58.49
29433;BME280;16405;53.964;13.448;2023-09-07T07:15:51;102375.19;;;31.74;55.37
29433;BME280;16405;53.964;13.448;2023-09-07T07:18:17;102387.88;;;33.02;53.24
29433;BME280;16405;53.964;13.448;2023-09-07T07:20:44;102400.34;;;34.11;50.79
29433;BME280;16405;53.964;13.448;2023-09-07T07:23:11;102399.69;;;34.39;49.13
29433;BME280;16405;53.964;13.448;2023-09-07T07:25:38;102418.22;;;35.25;47.21
29433;BME280;16405;53.964;13.448;2023-09-07T07:28:05;102427.13;;;35.98;46.13
29433;BME280;16405;53.964;13.448;2023-09-07T07:30:36;102426.78;;;36.78;44.78
29433;BME280;16405;53.964;13.448;2023-09-07T07:33:03;102429.97;;;36.81;43.96
29433;BME280;16405;53.964;13.448;2023-09-07T07:35:33;102440.44;;;36.29;44.10
29433;BME280;16405;53.964;13.448;2023-09-07T07:38:03;102441.19;;;35.88;43.25
29433;BME280;16405;53.964;13.448;2023-09-07T07:40:30;102451.25;;;35.60;43.91
29433;BME280;16405;53.964;13.448;2023-09-07T07:42:56;102450.19;;;35.82;43.56
29433;BME280;16405;53.964;13.448;2023-09-07T07:45:21;102450.66;;;35.43;43.91
29433;BME280;16405;53.964;13.448;2023-09-07T07:47:51;102453.44;;;35.64;43.46
29433;BME280;16405;53.964;13.448;2023-09-07T07:50:18;102467.63;;;36.59;42.22
29433;BME280;16405;53.964;13.448;2023-09-07T07:52:44;102458.41;;;36.10;42.53
29433;BME280;16405;53.964;13.448;2023-09-07T07:55:11;102465.47;;;36.54;41.73
29433;BME280;16405;53.964;13.448;2023-09-07T07:57:37;102471.53;;;36.43;41.68
29433;BME280;16405;53.964;13.448;2023-09-07T08:00:04;102460.44;;;35.73;42.11
29433;BME280;16405;53.964;13.448;2023-09-07T08:02:31;102465.63;;;36.40;41.97
29433;BME280;16405;53.964;13.448;2023-09-07T08:04:57;102458.69;;;36.16;41.98
29433;BME280;16405;53.964;13.448;2023-09-07T08:07:24;102465.03;;;36.16;41.66
29433;BME280;16405;53.964;13.448;2023-09-07T08:09:50;102452.78;;;35.90;42.48
29433;BME280;16405;53.964;13.448;2023-09-07T08:12:16;102464.41;;;36.14;41.54
29433;BME280;16405;53.964;13.448;2023-09-07T08:14:42;102457.66;;;35.67;42.17
29433;BME280;16405;53.964;13.448;2023-09-07T08:17:08;102461.09;;;35.54;42.29
29433;BME280;16405;53.964;13.448;2023-09-07T08:19:34;102453.59;;;35.41;42.80
29433;BME280;16405;53.964;13.448;2023-09-07T08:22:00;102449.16;;;35.19;42.13
29433;BME280;16405;53.964;13.448;2023-09-07T08:24:29;102444.25;;;35.79;42.42
29433;BME280;16405;53.964;13.448;2023-09-07T08:26:55;102451.78;;;35.98;41.34
29433;BME280;16405;53.964;13.448;2023-09-07T08:29:23;102443.31;;;35.93;41.58
29433;BME280;16405;53.964;13.448;2023-09-07T08:31:55;102440.13;;;35.89;41.59
29433;BME280;16405;53.964;13.448;2023-09-07T08:34:21;102431.88;;;35.03;42.31
29433;BME280;16405;53.964;13.448;2023-09-07T08:36:48;102415.94;;;33.88;44.76
29433;BME280;16405;53.964;13.448;2023-09-07T08:39:16;102411.78;;;34.15;44.24
29433;BME280;16405;53.964;13.448;2023-09-07T08:41:43;102410.44;;;34.70;44.17
29433;BME280;16405;53.964;13.448;2023-09-07T08:44:19;102409.13;;;34.51;43.23
29433;BME280;16405;53.964;13.448;2023-09-07T08:46:45;102405.63;;;34.43;44.73
29433;BME280;16405;53.964;13.448;2023-09-07T08:49:12;102400.38;;;34.41;43.90
29433;BME280;16405;53.964;13.448;2023-09-07T08:51:38;102383.47;;;33.09;46.39
29433;BME280;16405;53.964;13.448;2023-09-07T08:54:05;102373.19;;;32.40;46.84
29433;BME280;16405;53.964;13.448;2023-09-07T08:56:33;102368.44;;;32.26;47.50
29433;BME280;16405;53.964;13.448;2023-09-07T08:58:58;102364.41;;;32.14;48.07
29433;BME280;16405;53.964;13.448;2023-09-07T09:01:24;102354.53;;;31.96;48.87
29433;BME280;16405;53.964;13.448;2023-09-07T09:03:51;102363.28;;;31.59;49.41
29433;BME280;16405;53.964;13.448;2023-09-07T09:06:19;102357.69;;;31.68;49.99
29433;BME280;16405;53.964;13.448;2023-09-07T09:08:51;102342.78;;;30.89;49.91
29433;BME280;16405;53.964;13.448;2023-09-07T09:11:22;102331.16;;;30.28;51.62
29433;BME280;16405;53.964;13.448;2023-09-07T09:13:50;102338.91;;;30.23;51.76
29433;BME280;16405;53.964;13.448;2023-09-07T09:16:16;102325.63;;;29.41;53.10
29433;BME280;16405;53.964;13.448;2023-09-07T09:18:58;102317.00;;;29.64;53.72
29433;BME280;16405;53.964;13.448;2023-09-07T09:21:27;102313.81;;;29.69;53.44
29433;BME280;16405;53.964;13.448;2023-09-07T09:23:57;102310.00;;;29.17;54.32
29433;BME280;16405;53.964;13.448;2023-09-07T09:26:23;102301.06;;;28.89;55.48
29433;BME280;16405;53.964;13.448;2023-09-07T09:28:49;102307.47;;;29.16;55.50
29433;BME280;16405;53.964;13.448;2023-09-07T09:31:21;102305.31;;;28.92;56.23
29433;BME280;16405;53.964;13.448;2023-09-07T09:33:53;102305.19;;;29.11;56.18
29433;BME280;16405;53.964;13.448;2023-09-07T09:36:23;102300.75;;;29.28;55.95
29433;BME280;16405;53.964;13.448;2023-09-07T09:38:51;102301.28;;;28.96;55.38
29433;BME280;16405;53.964;13.448;2023-09-07T09:41:20;102301.63;;;28.93;55.37
29433;BME280;16405;53.964;13.448;2023-09-07T09:43:49;102295.56;;;28.99;55.29
29433;BME280;16405;53.964;13.448;2023-09-07T09:46:17;102294.03;;;28.96;54.81
29433;BME280;16405;53.964;13.448;2023-09-07T09:48:44;102294.47;;;28.92;55.50
29433;BME280;16405;53.964;13.448;2023-09-07T09:51:14;102290.19;;;28.43;55.39
29433;BME280;16405;53.964;13.448;2023-09-07T09:53:45;102282.69;;;28.83;55.38
29433;BME280;16405;53.964;13.448;2023-09-07T09:56:17;102286.97;;;28.86;55.40
29433;BME280;16405;53.964;13.448;2023-09-07T09:58:46;102283.72;;;28.82;55.12
29433;BME280;16405;53.964;13.448;2023-09-07T10:01:12;102286.91;;;28.77;54.89
29433;BME280;16405;53.964;13.448;2023-09-07T10:03:46;102277.34;;;28.55;54.62
29433;BME280;16405;53.964;13.448;2023-09-07T10:06:24;102279.03;;;28.47;55.76
29433;BME280;16405;53.964;13.448;2023-09-07T10:09:01;102278.34;;;28.72;54.84
29433;BME280;16405;53.964;13.448;2023-09-07T10:11:38;102276.59;;;28.99;54.97
29433;BME280;16405;53.964;13.448;2023-09-07T10:14:08;102280.16;;;28.99;53.55
29433;BME280;16405;53.964;13.448;2023-09-07T10:16:55;102277.53;;;29.08;53.17
29433;BME280;16405;53.964;13.448;2023-09-07T10:19:29;102283.44;;;29.21;52.93
29433;BME280;16405;53.964;13.448;2023-09-07T10:21:58;102285.25;;;28.84;52.29
29433;BME280;16405;53.964;13.448;2023-09-07T10:24:30;102280.84;;;29.01;53.61
29433;BME280;16405;53.964;13.448;2023-09-07T10:27:01;102282.34;;;29.14;52.16
29433;BME280;16405;53.964;13.448;2023-09-07T10:29:56;102284.28;;;29.21;51.89
29433;BME280;16405;53.964;13.448;2023-09-07T10:32:25;102293.34;;;29.12;51.27
29433;BME280;16405;53.964;13.448;2023-09-07T10:34:51;102280.16;;;28.99;52.75
29433;BME280;16405;53.964;13.448;2023-09-07T10:37:16;102272.09;;;29.26;52.08
29433;BME280;16405;53.964;13.448;2023-09-07T10:39:47;102274.88;;;28.62;50.42
29433;BME280;16405;53.964;13.448;2023-09-07T10:42:25;102275.91;;;28.97;51.41
29433;BME280;16405;53.964;13.448;2023-09-07T10:44:54;102278.16;;;29.19;50.93
29433;BME280;16405;53.964;13.448;2023-09-07T10:47:23;102269.38;;;29.26;50.87
29433;BME280;16405;53.964;13.448;2023-09-07T10:49:52;102273.56;;;29.02;51.18
29433;BME280;16405;53.964;13.448;2023-09-07T10:52:21;102274.91;;;29.16;51.30
29433;BME280;16405;53.964;13.448;2023-09-07T10:54:58;102275.66;;;29.26;49.05
29433;BME280;16405;53.964;13.448;2023-09-07T10:57:29;102284.94;;;29.41;48.58
29433;BME280;16405;53.964;13.448;2023-09-07T11:00:02;102288.13;;;29.37;47.37
29433;BME280;16405;53.964;13.448;2023-09-07T11:02:42;102287.81;;;29.40;47.80
29433;BME280;16405;53.964;13.448;2023-09-07T11:05:11;102289.84;;;29.64;47.61
29433;BME280;16405;53.964;13.448;2023-09-07T11:07:46;102291.34;;;29.84;48.35
29433;BME280;16405;53.964;13.448;2023-09-07T11:10:12;102296.00;;;29.92;47.64
29433;BME280;16405;53.964;13.448;2023-09-07T11:12:46;102301.28;;;30.28;48.13
29433;BME280;16405;53.964;13.448;2023-09-07T11:15:16;102293.22;;;29.84;47.09
29433;BME280;16405;53.964;13.448;2023-09-07T11:17:47;102294.66;;;29.96;47.34
29433;BME280;16405;53.964;13.448;2023-09-07T11:20:13;102289.81;;;30.16;46.89
29433;BME280;16405;53.964;13.448;2023-09-07T11:22:41;102293.34;;;30.00;46.27
29433;BME280;16405;53.964;13.448;2023-09-07T11:25:10;102285.41;;;29.81;47.01
29433;BME280;16405;53.964;13.448;2023-09-07T11:27:39;102276.22;;;29.56;47.48
29433;BME280;16405;53.964;13.448;2023-09-07T11:30:10;102280.63;;;29.75;47.27
29433;BME280;16405;53.964;13.448;2023-09-07T11:32:39;102285.41;;;29.81;47.04
29433;BME280;16405;53.964;13.448;2023-09-07T11:35:11;102292.41;;;29.65;47.02
29433;BME280;16405;53.964;13.448;2023-09-07T11:37:37;102283.47;;;29.47;47.10
29433;BME280;16405;53.964;13.448;2023-09-07T11:40:04;102275.25;;;29.39;46.96
29433;BME280;16405;53.964;13.448;2023-09-07T11:42:44;102270.78;;;29.30;46.98
29433;BME280;16405;53.964;13.448;2023-09-07T11:45:12;102270.97;;;29.10;47.29
29433;BME280;16405;53.964;13.448;2023-09-07T11:47:42;102262.91;;;29.18;46.46
29433;BME280;16405;53.964;13.448;2023-09-07T11:50:17;102264.81;;;28.90;47.59
29433;BME280;16405;53.964;13.448;2023-09-07T11:52:49;102259.06;;;28.57;47.93
29433;BME280;16405;53.964;13.448;2023-09-07T11:55:20;102258.91;;;28.59;47.40
29433;BME280;16405;53.964;13.448;2023-09-07T11:57:49;102251.97;;;28.47;47.27
29433;BME280;16405;53.964;13.448;2023-09-07T12:00:22;102238.72;;;28.26;47.92
29433;BME280;16405;53.964;13.448;2023-09-07T12:02:51;102233.13;;;28.27;49.35
29433;BME280;16405;53.964;13.448;2023-09-07T12:05:19;102240.09;;;28.02;49.70
29433;BME280;16405;53.964;13.448;2023-09-07T12:07:48;102243.16;;;28.17;48.83
29433;BME280;16405;53.964;13.448;2023-09-07T12:10:20;102224.72;;;28.02;49.47
29433;BME280;16405;53.964;13.448;2023-09-07T12:12:49;102244.06;;;28.08;48.82
29433;BME280;16405;53.964;13.448;2023-09-07T12:15:21;102229.72;;;27.97;49.41
29433;BME280;16405;53.964;13.448;2023-09-07T12:17:51;102240.66;;;28.06;49.03
29433;BME280;16405;53.964;13.448;2023-09-07T12:20:26;102238.47;;;28.19;48.76
29433;BME280;16405;53.964;13.448;2023-09-07T12:22:51;102239.44;;;28.18;48.97
29433;BME280;16405;53.964;13.448;2023-09-07T12:25:20;102224.00;;;28.00;49.56
29433;BME280;16405;53.964;13.448;2023-09-07T12:27:46;102216.56;;;28.12;49.05
29433;BME280;16405;53.964;13.448;2023-09-07T12:30:22;102223.63;;;28.23;48.45
29433;BME280;16405;53.964;13.448;2023-09-07T12:32:52;102209.06;;;28.24;49.97
29433;BME280;16405;53.964;13.448;2023-09-07T12:35:21;102214.72;;;28.03;51.20
29433;BME280;16405;53.964;13.448;2023-09-07T12:37:50;102208.84;;;28.08;51.76
29433;BME280;16405;53.964;13.448;2023-09-07T12:40:21;102205.03;;;28.10;52.09
29433;BME280;16405;53.964;13.448;2023-09-07T12:42:53;102200.13;;;27.86;51.72
29433;BME280;16405;53.964;13.448;2023-09-07T12:45:22;102194.44;;;27.89;51.44